createdAt,value
2023-03-28T00:00:33.423Z,109.00
2023-03-28T00:01:34.090Z,109.00
2023-03-28T00:02:34.266Z,109.00
2023-03-28T00:03:34.313Z,109.00
2023-03-28T00:03:43.852Z,109.00
2023-03-28T00:04:43.963Z,109.00
2023-03-28T00:05:44.670Z,109.00
2023-03-28T00:06:45.324Z,109.00
2023-03-28T00:07:46.137Z,109.00
2023-03-28T00:08:46.733Z,109.00
2023-03-28T00:09:47.381Z,109.00
2023-03-28T00:10:48.309Z,109.00
2023-03-28T00:11:48.743Z,109.00
2023-03-28T00:12:49.570Z,109.00
2023-03-28T00:13:50.161Z,109.00
2023-03-28T00:14:51.093Z,109.00
2023-03-28T00:14:59.681Z,109.00
2023-03-28T00:16:00.869Z,109.00
2023-03-28T00:17:01.221Z,109.00
2023-03-28T00:18:01.929Z,109.00
2023-03-28T00:19:02.593Z,109.00
2023-03-28T00:20:03.345Z,109.00
2023-03-28T00:21:04.372Z,109.00
2023-03-28T00:22:05.040Z,109.00
2023-03-28T00:23:05.861Z,109.00
2023-03-28T00:24:06.778Z,109.00
2023-03-28T00:25:07.453Z,109.00
2023-03-28T00:25:17.625Z,109.00
2023-03-28T00:26:18.392Z,109.00
2023-03-28T00:27:18.979Z,109.00
2023-03-28T00:28:19.683Z,109.00
2023-03-28T00:29:20.443Z,109.00
2023-03-28T00:30:21.297Z,109.00
2023-03-28T00:31:22.250Z,109.00
2023-03-28T00:32:23.071Z,109.00
2023-03-28T00:33:23.656Z,109.00
2023-03-28T00:34:24.319Z,109.00
2023-03-28T00:35:24.857Z,109.00
2023-03-28T00:36:25.597Z,109.00
2023-03-28T00:36:35.288Z,109.00
2023-03-28T00:37:36.047Z,109.00
2023-03-28T00:38:36.719Z,109.00
2023-03-28T00:39:37.324Z,109.00
2023-03-28T00:40:38.021Z,109.00
2023-03-28T00:41:38.749Z,109.00
2023-03-28T00:42:39.397Z,109.00
2023-03-28T00:43:40.035Z,109.00
2023-03-28T00:44:40.833Z,109.00
2023-03-28T00:45:41.606Z,109.00
2023-03-28T00:46:42.308Z,109.00
2023-03-28T00:46:51.500Z,109.00
2023-03-28T00:47:51.458Z,109.00
2023-03-28T00:48:52.144Z,109.00
2023-03-28T00:49:52.851Z,109.00
2023-03-28T00:50:53.473Z,109.00
2023-03-28T00:51:54.314Z,109.00
2023-03-28T00:52:55.009Z,109.00
2023-03-28T00:53:55.764Z,109.00
2023-03-28T00:54:56.423Z,109.00
2023-03-28T00:55:57.719Z,109.00
2023-03-28T00:56:57.412Z,109.00
2023-03-28T00:57:57.515Z,109.00
2023-03-28T00:58:07.207Z,109.00
2023-03-28T00:59:07.864Z,109.00
2023-03-28T01:00:08.491Z,109.00
2023-03-28T01:01:09.296Z,109.00
2023-03-28T01:02:10.037Z,109.00
2023-03-28T01:03:10.746Z,109.00
2023-03-28T01:04:10.822Z,109.00
2023-03-28T01:05:11.683Z,109.00
2023-03-28T01:06:12.437Z,109.00
2023-03-28T01:07:13.128Z,109.00
2023-03-28T01:08:13.803Z,109.00
2023-03-28T01:08:22.524Z,109.00
2023-03-28T01:09:23.235Z,109.00
2023-03-28T01:10:23.665Z,109.00
2023-03-28T01:11:24.405Z,109.00
2023-03-28T01:12:25.114Z,109.00
2023-03-28T01:13:25.839Z,109.00
2023-03-28T01:14:25.948Z,109.00
2023-03-28T01:15:26.674Z,109.00
2023-03-28T01:16:27.404Z,109.00
2023-03-28T01:17:28.073Z,109.00
2023-03-28T01:18:28.708Z,109.00
2023-03-28T01:19:29.158Z,109.00
2023-03-28T01:20:29.759Z,109.00
2023-03-28T01:20:38.846Z,109.00
2023-03-28T01:21:39.400Z,109.00
2023-03-28T01:22:40.054Z,109.00
2023-03-28T01:23:40.073Z,109.00
2023-03-28T01:24:40.690Z,109.00
2023-03-28T01:25:41.686Z,109.00
2023-03-28T01:26:42.373Z,109.00
2023-03-28T01:27:43.113Z,109.00
2023-03-28T01:28:43.706Z,109.00
2023-03-28T01:30:00.745Z,109.00
2023-03-28T01:31:01.400Z,109.00
2023-03-28T01:32:02.199Z,109.00
2023-03-28T01:33:02.972Z,109.00
2023-03-28T01:34:03.612Z,109.00
2023-03-28T01:35:04.293Z,109.00
2023-03-28T01:36:05.074Z,109.00
2023-03-28T01:37:05.795Z,109.00
2023-03-28T01:38:07.752Z,109.00
2023-03-28T01:39:07.467Z,109.00
2023-03-28T01:40:08.097Z,109.00
2023-03-28T01:41:08.760Z,109.00
2023-03-28T01:41:18.913Z,109.00
2023-03-28T01:42:19.706Z,109.00
2023-03-28T01:43:20.243Z,109.00
2023-03-28T01:44:20.471Z,109.00
2023-03-28T01:45:21.421Z,109.00
2023-03-28T01:46:22.141Z,109.00
2023-03-28T01:47:22.942Z,109.00
2023-03-28T01:48:23.641Z,109.00
2023-03-28T01:49:24.282Z,109.00
2023-03-28T01:50:24.938Z,109.00
2023-03-28T01:51:25.717Z,109.00
2023-03-28T01:51:34.989Z,109.00
2023-03-28T01:52:35.666Z,109.00
2023-03-28T01:53:36.428Z,109.00
2023-03-28T01:54:37.089Z,109.00
2023-03-28T01:55:41.839Z,109.00
2023-03-28T01:56:38.479Z,109.00
2023-03-28T01:57:39.354Z,109.00
2023-03-28T01:58:40.023Z,109.00
2023-03-28T01:59:40.723Z,109.00
2023-03-28T02:00:41.281Z,109.00
2023-03-28T02:01:41.935Z,109.00
2023-03-28T02:02:42.732Z,109.00
2023-03-28T02:02:51.342Z,109.00
2023-03-28T02:03:51.581Z,109.00
2023-03-28T02:04:52.286Z,109.00
2023-03-28T02:05:53.015Z,109.00
2023-03-28T02:06:53.620Z,109.00
2023-03-28T02:07:54.315Z,109.00
2023-03-28T02:08:55.070Z,109.00
2023-03-28T02:09:55.667Z,109.00
2023-03-28T02:10:56.303Z,109.00
2023-03-28T02:11:56.902Z,109.00
2023-03-28T02:12:57.572Z,109.00
2023-03-28T02:13:58.322Z,109.00
2023-03-28T02:14:58.978Z,109.00
2023-03-28T02:15:07.566Z,109.00
2023-03-28T02:16:08.245Z,109.00
2023-03-28T02:17:09.084Z,109.00
2023-03-28T02:18:09.793Z,109.00
2023-03-28T02:19:10.512Z,109.00
2023-03-28T02:20:11.255Z,109.00
2023-03-28T02:21:11.901Z,109.00
2023-03-28T02:22:12.569Z,109.00
2023-03-28T02:23:13.198Z,109.00
2023-03-28T02:24:13.891Z,109.00
2023-03-28T02:25:14.583Z,109.00
2023-03-28T02:26:15.285Z,109.00
2023-03-28T02:27:15.958Z,109.00
2023-03-28T02:27:25.132Z,109.00
2023-03-28T02:28:25.768Z,109.00
2023-03-28T02:29:26.417Z,109.00
2023-03-28T02:30:26.639Z,109.00
2023-03-28T02:31:27.385Z,109.00
2023-03-28T02:32:28.159Z,109.00
2023-03-28T02:33:28.806Z,109.00
2023-03-28T02:34:30.738Z,109.00
2023-03-28T02:35:30.419Z,109.00
2023-03-28T02:36:31.088Z,109.00
2023-03-28T02:37:31.797Z,109.00
2023-03-28T02:37:41.008Z,109.00
2023-03-28T02:38:41.933Z,109.00
2023-03-28T02:39:42.623Z,109.00
2023-03-28T02:40:43.319Z,109.00
2023-03-28T02:41:43.980Z,109.00
2023-03-28T02:42:44.703Z,109.00
2023-03-28T02:43:45.306Z,109.00
2023-03-28T02:44:46.159Z,109.00
2023-03-28T02:45:46.926Z,109.00
2023-03-28T02:46:47.566Z,109.00
2023-03-28T02:47:48.185Z,109.00
2023-03-28T02:48:48.897Z,109.00
2023-03-28T02:49:50.753Z,109.00
2023-03-28T02:49:58.253Z,109.00
2023-03-28T02:50:58.919Z,109.00
2023-03-28T02:51:59.671Z,109.00
2023-03-28T02:53:00.398Z,109.00
2023-03-28T02:54:01.025Z,109.00
2023-03-28T02:55:01.704Z,109.00
2023-03-28T02:56:02.683Z,109.00
2023-03-28T02:57:03.088Z,109.00
2023-03-28T02:58:03.696Z,109.00
2023-03-28T02:59:04.400Z,109.00
2023-03-28T03:00:05.056Z,109.00
2023-03-28T03:00:13.779Z,109.00
2023-03-28T03:01:14.712Z,109.00
2023-03-28T03:02:15.125Z,109.00
2023-03-28T03:03:15.896Z,109.00
2023-03-28T03:04:16.109Z,109.00
2023-03-28T03:05:16.413Z,109.00
2023-03-28T03:06:17.108Z,109.00
2023-03-28T03:07:17.783Z,109.00
2023-03-28T03:08:18.529Z,109.00
2023-03-28T03:09:19.193Z,109.00
2023-03-28T03:10:19.895Z,109.00
2023-03-28T03:11:20.599Z,109.00
2023-03-28T03:11:30.265Z,109.00
2023-03-28T03:12:30.977Z,109.00
2023-03-28T03:13:31.717Z,109.00
2023-03-28T03:14:31.845Z,109.00
2023-03-28T03:15:32.577Z,109.00
2023-03-28T03:16:33.241Z,109.00
2023-03-28T03:17:33.906Z,109.00
2023-03-28T03:18:34.819Z,109.00
2023-03-28T03:19:35.488Z,109.00
2023-03-28T03:20:36.162Z,109.00
2023-03-28T03:21:36.432Z,109.00
2023-03-28T03:22:37.040Z,109.00
2023-03-28T03:23:37.756Z,109.00
2023-03-28T03:23:47.371Z,109.00
2023-03-28T03:24:48.074Z,109.00
2023-03-28T03:25:48.819Z,109.00
2023-03-28T03:26:49.633Z,109.00
2023-03-28T03:27:50.400Z,109.00
2023-03-28T03:28:51.130Z,109.00
2023-03-28T03:29:51.839Z,109.00
2023-03-28T03:30:52.605Z,109.00
2023-03-28T03:31:52.902Z,109.00
2023-03-28T03:32:53.698Z,109.00
2023-03-28T03:33:54.359Z,109.00
2023-03-28T03:34:55.249Z,109.00
2023-03-28T03:35:03.872Z,109.00
2023-03-28T03:36:04.536Z,109.00
2023-03-28T03:37:05.124Z,109.00
2023-03-28T03:38:05.816Z,109.00
2023-03-28T03:39:05.903Z,109.00
2023-03-28T03:40:06.566Z,109.00
2023-03-28T03:41:07.239Z,109.00
2023-03-28T03:42:07.913Z,109.00
2023-03-28T03:43:07.988Z,109.00
2023-03-28T03:44:08.810Z,109.00
2023-03-28T03:45:09.474Z,109.00
2023-03-28T03:46:10.188Z,109.00
2023-03-28T03:46:18.773Z,109.00
2023-03-28T03:47:19.377Z,109.00
2023-03-28T03:48:20.049Z,109.00
2023-03-28T03:49:20.733Z,109.00
2023-03-28T03:50:21.607Z,109.00
2023-03-28T03:51:22.271Z,109.00
2023-03-28T03:52:22.937Z,109.00
2023-03-28T03:53:23.691Z,109.00
2023-03-28T03:54:24.539Z,109.00
2023-03-28T03:55:24.842Z,109.00
2023-03-28T03:56:25.543Z,109.00
2023-03-28T03:57:26.234Z,109.00
2023-03-28T03:57:34.897Z,109.00
2023-03-28T03:58:35.510Z,109.00
2023-03-28T03:59:36.257Z,109.00
2023-03-28T04:00:36.879Z,109.00
2023-03-28T04:01:37.668Z,109.00
2023-03-28T04:02:38.341Z,109.00
2023-03-28T04:03:39.038Z,109.00
2023-03-28T04:04:39.660Z,109.00
2023-03-28T04:05:40.416Z,109.00
2023-03-28T04:06:41.041Z,109.00
2023-03-28T04:07:41.778Z,109.00
2023-03-28T04:07:50.428Z,109.00
2023-03-28T04:08:51.087Z,109.00
2023-03-28T04:09:51.802Z,109.00
2023-03-28T04:10:52.460Z,109.00
2023-03-28T04:11:53.109Z,109.00
2023-03-28T04:12:53.913Z,109.00
2023-03-28T04:14:26.797Z,109.00
2023-03-28T04:15:27.476Z,109.00
2023-03-28T04:16:28.313Z,109.00
2023-03-28T04:17:28.902Z,109.00
2023-03-28T04:18:29.515Z,109.00
2023-03-28T04:19:30.162Z,109.00
2023-03-28T04:20:30.838Z,109.00
2023-03-28T04:21:31.539Z,109.00
2023-03-28T04:22:32.296Z,109.00
2023-03-28T04:23:34.017Z,109.00
2023-03-28T04:24:32.949Z,109.00
2023-03-28T04:25:33.717Z,109.00
2023-03-28T04:25:42.352Z,109.00
2023-03-28T04:26:43.030Z,109.00
2023-03-28T04:27:43.741Z,109.00
2023-03-28T04:28:44.413Z,109.00
2023-03-28T04:29:45.322Z,109.00
2023-03-28T04:30:46.261Z,109.00
2023-03-28T04:31:47.263Z,109.00
2023-03-28T04:32:47.959Z,109.00
2023-03-28T04:33:48.521Z,109.00
2023-03-28T04:34:49.250Z,109.00
2023-03-28T04:35:49.963Z,109.00
2023-03-28T04:36:00.947Z,109.00
2023-03-28T04:37:01.395Z,109.00
2023-03-28T04:38:02.048Z,109.00
2023-03-28T04:39:02.813Z,109.00
2023-03-28T04:40:03.351Z,109.00
2023-03-28T04:41:04.070Z,109.00
2023-03-28T04:42:04.989Z,109.00
2023-03-28T04:43:05.557Z,109.00
2023-03-28T04:44:31.624Z,109.00
2023-03-28T04:45:41.293Z,109.00
2023-03-28T04:46:32.926Z,109.00
2023-03-28T04:47:33.822Z,109.00
2023-03-28T04:48:34.478Z,109.00
2023-03-28T04:49:34.852Z,109.00
2023-03-28T04:50:35.960Z,109.00
2023-03-28T04:51:35.758Z,109.00
2023-03-28T04:52:36.627Z,109.00
2023-03-28T04:53:37.376Z,109.00
2023-03-28T04:54:38.019Z,109.00
2023-03-28T04:55:38.702Z,109.00
2023-03-28T04:55:47.341Z,109.00
2023-03-28T04:56:48.110Z,109.00
2023-03-28T04:57:48.743Z,109.00
2023-03-28T04:58:48.827Z,109.00
2023-03-28T04:59:49.474Z,109.00
2023-03-28T05:00:50.088Z,109.00
2023-03-28T05:01:51.154Z,109.00
2023-03-28T05:02:51.853Z,109.00
2023-03-28T05:03:52.521Z,109.00
2023-03-28T05:04:53.259Z,109.00
2023-03-28T05:05:53.923Z,109.00
2023-03-28T05:06:57.465Z,109.00
2023-03-28T05:07:07.168Z,109.00
2023-03-28T05:08:07.163Z,109.00
2023-03-28T05:09:07.833Z,109.00
2023-03-28T05:10:08.679Z,109.00
2023-03-28T05:11:09.320Z,109.00
2023-03-28T05:12:10.007Z,109.00
2023-03-28T05:13:10.671Z,109.00
2023-03-28T05:14:11.597Z,109.00
2023-03-28T05:15:21.966Z,109.00
2023-03-28T05:16:12.907Z,109.00
2023-03-28T05:17:13.691Z,109.00
2023-03-28T05:18:14.490Z,109.00
2023-03-28T05:18:23.619Z,109.00
2023-03-28T05:19:24.317Z,109.00
2023-03-28T05:20:25.040Z,109.00
2023-03-28T05:21:25.067Z,109.00
2023-03-28T05:22:25.829Z,109.00
2023-03-28T05:23:26.620Z,109.00
2023-03-28T05:24:27.544Z,109.00
2023-03-28T05:25:27.631Z,109.00
2023-03-28T05:26:28.395Z,109.00
2023-03-28T05:27:29.590Z,109.00
2023-03-28T05:28:29.354Z,109.00
2023-03-28T05:29:30.177Z,109.00
2023-03-28T05:29:39.331Z,109.00
2023-03-28T05:30:39.955Z,109.00
2023-03-28T05:31:40.912Z,109.00
2023-03-28T05:32:41.565Z,109.00
2023-03-28T05:33:42.245Z,109.00
2023-03-28T05:34:42.956Z,109.00
2023-03-28T05:35:43.575Z,109.00
2023-03-28T05:36:44.345Z,109.00
2023-03-28T05:37:46.954Z,109.00
2023-03-28T05:38:45.747Z,109.00
2023-03-28T05:39:46.404Z,109.00
2023-03-28T05:40:47.034Z,109.00
2023-03-28T05:40:55.665Z,109.00
2023-03-28T05:41:56.314Z,109.00
2023-03-28T05:42:56.975Z,109.00
2023-03-28T05:43:57.374Z,109.00
2023-03-28T05:44:57.980Z,109.00
2023-03-28T05:45:58.844Z,109.00
2023-03-28T05:46:59.524Z,109.00
2023-03-28T05:48:00.352Z,109.00
2023-03-28T05:49:00.974Z,109.00
2023-03-28T05:50:01.619Z,109.00
2023-03-28T05:51:02.472Z,109.00
2023-03-28T05:51:11.634Z,109.00
2023-03-28T05:52:12.261Z,109.00
2023-03-28T05:53:12.920Z,109.00
2023-03-28T05:54:13.645Z,109.00
2023-03-28T05:55:14.175Z,109.00
2023-03-28T05:56:14.829Z,109.00
2023-03-28T05:57:15.681Z,109.00
2023-03-28T05:58:16.374Z,109.00
2023-03-28T05:59:17.077Z,109.00
2023-03-28T06:00:17.734Z,109.00
2023-03-28T06:01:18.471Z,109.00
2023-03-28T06:01:27.664Z,109.00
2023-03-28T06:02:28.288Z,109.00
2023-03-28T06:03:28.936Z,109.00
2023-03-28T06:04:29.592Z,109.00
2023-03-28T06:05:30.417Z,109.00
2023-03-28T06:06:31.080Z,109.00
2023-03-28T06:07:42.092Z,109.00
2023-03-28T06:08:32.116Z,109.00
2023-03-28T06:09:32.890Z,109.00
2023-03-28T06:10:33.575Z,109.00
2023-03-28T06:11:34.191Z,109.00
2023-03-28T06:12:34.828Z,109.00
2023-03-28T06:12:44.008Z,109.00
2023-03-28T06:13:44.623Z,109.00
2023-03-28T06:14:45.346Z,109.00
2023-03-28T06:15:46.170Z,109.00
2023-03-28T06:16:46.594Z,109.00
2023-03-28T06:17:47.356Z,109.00
2023-03-28T06:18:48.069Z,109.00
2023-03-28T06:19:48.798Z,109.00
2023-03-28T06:20:49.760Z,109.00
2023-03-28T06:21:49.963Z,109.00
2023-03-28T06:22:50.270Z,109.00
2023-03-28T06:23:50.832Z,109.00
2023-03-28T06:23:59.470Z,109.00
2023-03-28T06:25:00.227Z,109.00
2023-03-28T06:26:00.968Z,109.00
2023-03-28T06:27:01.605Z,109.00
2023-03-28T06:28:02.129Z,109.00
2023-03-28T06:29:02.835Z,109.00
2023-03-28T06:30:03.618Z,109.00
2023-03-28T06:31:04.662Z,109.00
2023-03-28T06:32:08.488Z,109.00
2023-03-28T06:33:06.163Z,109.00
2023-03-28T06:34:06.862Z,109.00
2023-03-28T06:34:16.016Z,109.00
2023-03-28T06:35:16.727Z,109.00
2023-03-28T06:36:17.527Z,109.00
2023-03-28T06:37:18.146Z,109.00
2023-03-28T06:38:18.887Z,109.00
2023-03-28T06:39:19.573Z,109.00
2023-03-28T06:40:20.491Z,109.00
2023-03-28T06:41:20.631Z,109.00
2023-03-28T06:42:20.689Z,109.00
2023-03-28T06:43:21.370Z,109.00
2023-03-28T06:44:30.346Z,109.00
2023-03-28T06:45:23.017Z,109.00
2023-03-28T06:46:26.660Z,109.00
2023-03-28T06:46:35.699Z,109.00
2023-03-28T06:47:35.315Z,109.00
2023-03-28T06:48:36.522Z,109.00
2023-03-28T06:50:08.152Z,109.00
2023-03-28T06:51:07.808Z,109.00
2023-03-28T06:52:08.660Z,109.00
2023-03-28T06:53:09.269Z,109.00
2023-03-28T06:54:09.969Z,109.00
2023-03-28T06:55:10.330Z,109.00
2023-03-28T06:56:10.562Z,109.00
2023-03-28T06:57:11.445Z,109.00
2023-03-28T06:58:12.030Z,109.00
2023-03-28T06:59:12.890Z,109.00
2023-03-28T07:00:13.839Z,109.00
2023-03-28T07:01:13.891Z,109.00
2023-03-28T07:01:24.041Z,109.00
2023-03-28T07:02:25.025Z,109.00
2023-03-28T07:03:25.958Z,109.00
2023-03-28T07:04:26.614Z,109.00
2023-03-28T07:05:27.556Z,109.00
2023-03-28T07:06:28.326Z,109.00
2023-03-28T07:07:29.096Z,109.00
2023-03-28T07:08:29.800Z,109.00
2023-03-28T07:09:30.560Z,109.00
2023-03-28T07:10:31.354Z,109.00
2023-03-28T07:11:32.206Z,109.00
2023-03-28T07:12:33.002Z,109.00
2023-03-28T07:12:42.055Z,109.00
2023-03-28T07:13:42.880Z,109.00
2023-03-28T07:14:43.639Z,109.00
2023-03-28T07:15:44.342Z,109.00
2023-03-28T07:16:45.006Z,109.00
2023-03-28T07:17:45.541Z,109.00
2023-03-28T07:18:46.482Z,109.00
2023-03-28T07:19:46.691Z,109.00
2023-03-28T07:20:57.950Z,109.00
2023-03-28T07:21:47.856Z,109.00
2023-03-28T07:22:48.558Z,109.00
2023-03-28T07:23:49.347Z,109.00
2023-03-28T07:23:57.989Z,109.00
2023-03-28T07:24:58.747Z,109.00
2023-03-28T07:25:59.415Z,109.00
2023-03-28T07:27:12.374Z,109.00
2023-03-28T07:28:01.030Z,109.00
2023-03-28T07:29:01.832Z,109.00
2023-03-28T07:30:02.762Z,109.00
2023-03-28T07:31:03.727Z,109.00
2023-03-28T07:32:04.493Z,109.00
2023-03-28T07:33:18.347Z,109.00
2023-03-28T07:34:05.864Z,109.00
2023-03-28T07:35:06.482Z,109.00
2023-03-28T07:35:15.164Z,109.00
2023-03-28T07:36:15.820Z,109.00
2023-03-28T07:37:16.482Z,109.00
2023-03-28T07:38:17.229Z,109.00
2023-03-28T07:39:17.866Z,109.00
2023-03-28T07:40:18.481Z,109.00
2023-03-28T07:41:19.262Z,109.00
2023-03-28T07:42:19.982Z,109.00
2023-03-28T07:43:20.152Z,109.00
2023-03-28T07:44:20.816Z,109.00
2023-03-28T07:45:21.381Z,109.00
2023-03-28T07:45:34.598Z,109.00
2023-03-28T07:46:34.142Z,109.00
2023-03-28T07:47:38.658Z,109.00
2023-03-28T07:48:35.263Z,109.00
2023-03-28T07:49:35.739Z,109.00
2023-03-28T07:50:36.430Z,109.00
2023-03-28T07:51:37.135Z,109.00
2023-03-28T07:52:38.142Z,109.00
2023-03-28T07:53:38.876Z,109.00
2023-03-28T07:54:39.633Z,109.00
2023-03-28T07:56:41.165Z,109.00
2023-03-28T07:56:49.701Z,109.00
2023-03-28T07:57:50.450Z,109.00
2023-03-28T07:58:51.257Z,106.88
2023-03-28T07:59:51.888Z,103.29
2023-03-28T08:00:52.598Z,100.82
2023-03-28T08:01:52.657Z,100.94
2023-03-28T08:02:53.552Z,100.92
2023-03-28T08:03:53.757Z,100.36
2023-03-28T08:04:54.349Z,100.08
2023-03-28T08:05:55.188Z,97.96
2023-03-28T08:06:55.896Z,96.46
2023-03-28T08:07:07.621Z,90.73
2023-03-28T08:08:07.615Z,91.62
2023-03-28T08:09:08.114Z,91.78
2023-03-28T08:10:08.703Z,89.69
2023-03-28T08:11:09.595Z,88.65
2023-03-28T08:12:10.564Z,96.18
2023-03-28T08:13:10.761Z,94.01
2023-03-28T08:14:11.550Z,92.41
2023-03-28T08:15:12.298Z,95.72
2023-03-28T08:16:13.234Z,95.14
2023-03-28T08:17:13.337Z,96.60
2023-03-28T08:18:14.018Z,94.84
2023-03-28T08:18:23.686Z,93.80
2023-03-28T08:19:24.534Z,94.77
2023-03-28T08:20:24.628Z,91.19
2023-03-28T08:21:26.726Z,92.26
2023-03-28T08:22:26.184Z,88.72
2023-03-28T08:23:26.885Z,88.66
2023-03-28T08:24:35.355Z,92.89
2023-03-28T08:25:28.257Z,91.74
2023-03-28T08:26:29.120Z,88.86
2023-03-28T08:27:29.480Z,85.42
2023-03-28T08:28:30.367Z,84.99
2023-03-28T08:29:31.235Z,82.03
2023-03-28T08:29:40.328Z,89.02
2023-03-28T08:30:40.867Z,89.12
2023-03-28T08:31:41.156Z,93.87
2023-03-28T08:32:41.305Z,90.67
2023-03-28T08:33:42.103Z,94.67
2023-03-28T08:34:42.976Z,93.35
2023-03-28T08:35:43.866Z,92.45
2023-03-28T08:36:44.459Z,88.70
2023-03-28T08:37:45.278Z,88.10
2023-03-28T08:38:46.097Z,81.84
2023-03-28T08:39:46.868Z,80.97
2023-03-28T08:39:55.543Z,80.90
2023-03-28T08:40:56.322Z,81.96
2023-03-28T08:41:57.172Z,83.08
2023-03-28T08:42:57.401Z,82.54
2023-03-28T08:43:58.155Z,82.67
2023-03-28T08:45:32.728Z,82.66
2023-03-28T08:46:33.556Z,82.61
2023-03-28T08:47:34.306Z,82.76
2023-03-28T08:48:34.981Z,83.09
2023-03-28T08:49:35.433Z,85.55
2023-03-28T08:50:35.901Z,84.42
2023-03-28T08:51:36.780Z,86.95
2023-03-28T08:52:37.549Z,82.33
2023-03-28T08:53:37.677Z,81.85
2023-03-28T08:54:38.355Z,82.60
2023-03-28T08:55:39.126Z,82.21
2023-03-28T08:55:47.848Z,82.18
2023-03-28T08:56:48.069Z,82.57
2023-03-28T08:57:48.773Z,82.75
2023-03-28T08:58:49.645Z,84.52
2023-03-28T08:59:50.553Z,86.91
2023-03-28T09:00:50.713Z,83.97
2023-03-28T09:01:51.665Z,83.85
2023-03-28T09:02:52.158Z,87.01
2023-03-28T09:04:53.077Z,86.74
2023-03-28T09:05:53.907Z,86.47
2023-03-28T09:06:54.663Z,89.98
2023-03-28T09:07:04.380Z,90.49
2023-03-28T09:08:04.941Z,90.80
2023-03-28T09:09:05.785Z,91.40
2023-03-28T09:10:06.772Z,88.60
2023-03-28T09:11:06.936Z,88.81
2023-03-28T09:12:07.753Z,87.96
2023-03-28T09:13:08.493Z,85.81
2023-03-28T09:14:09.218Z,85.45
2023-03-28T09:15:09.977Z,82.30
2023-03-28T09:16:10.011Z,86.22
2023-03-28T09:17:10.765Z,87.15
2023-03-28T09:18:11.443Z,84.73
2023-03-28T09:18:20.059Z,86.37
2023-03-28T09:19:20.843Z,86.65
2023-03-28T09:20:21.692Z,85.78
2023-03-28T09:21:22.538Z,87.84
2023-03-28T09:22:23.376Z,88.61
2023-03-28T09:23:24.060Z,89.87
2023-03-28T09:24:24.726Z,92.90
2023-03-28T09:25:25.335Z,93.88
2023-03-28T09:26:26.101Z,95.80
2023-03-28T09:27:26.798Z,95.08
2023-03-28T09:28:27.167Z,97.62
2023-03-28T09:29:27.277Z,98.16
2023-03-28T09:29:36.932Z,98.39
2023-03-28T09:30:37.129Z,98.61
2023-03-28T09:31:38.078Z,97.21
2023-03-28T09:32:38.780Z,97.52
2023-03-28T09:33:38.796Z,98.31
2023-03-28T09:34:39.734Z,97.90
2023-03-28T09:35:40.501Z,100.84
2023-03-28T09:36:48.322Z,101.29
2023-03-28T09:37:42.346Z,98.39
2023-03-28T09:38:43.035Z,98.74
2023-03-28T09:39:43.782Z,100.05
2023-03-28T09:40:44.684Z,98.44
2023-03-28T09:40:53.362Z,97.26
2023-03-28T09:41:53.491Z,97.42
2023-03-28T09:42:54.059Z,98.72
2023-03-28T09:43:59.163Z,98.92
2023-03-28T09:45:02.580Z,95.82
2023-03-28T09:45:56.368Z,94.61
2023-03-28T09:46:57.179Z,91.18
2023-03-28T09:47:57.956Z,92.61
2023-03-28T09:48:58.360Z,95.81
2023-03-28T09:50:09.448Z,98.16
2023-03-28T09:51:00.008Z,97.87
2023-03-28T09:52:00.630Z,95.46
2023-03-28T09:53:01.313Z,93.32
2023-03-28T09:53:10.953Z,87.67
2023-03-28T09:54:11.811Z,87.53
2023-03-28T09:55:12.585Z,90.09
2023-03-28T09:56:13.388Z,89.42
2023-03-28T09:57:14.193Z,88.79
2023-03-28T09:58:14.326Z,86.32
2023-03-28T09:59:15.050Z,86.86
2023-03-28T10:00:15.793Z,85.48
2023-03-28T10:01:16.679Z,83.04
2023-03-28T10:02:17.321Z,85.89
2023-03-28T10:03:17.405Z,86.34
2023-03-28T10:04:18.195Z,87.40
2023-03-28T10:04:27.842Z,84.28
2023-03-28T10:05:28.632Z,84.39
2023-03-28T10:06:29.354Z,86.12
2023-03-28T10:07:30.026Z,88.15
2023-03-28T10:08:30.310Z,90.01
2023-03-28T10:09:31.046Z,91.27
2023-03-28T10:10:31.329Z,90.39
2023-03-28T10:11:32.311Z,94.24
2023-03-28T10:12:34.063Z,93.16
2023-03-28T10:13:33.882Z,94.25
2023-03-28T10:14:34.676Z,89.86
2023-03-28T10:15:35.430Z,92.58
2023-03-28T10:15:44.096Z,89.79
2023-03-28T10:16:44.480Z,89.78
2023-03-28T10:17:44.833Z,90.22
2023-03-28T10:18:45.458Z,90.49
2023-03-28T10:19:45.543Z,87.88
2023-03-28T10:20:46.538Z,89.81
2023-03-28T10:21:47.402Z,86.63
2023-03-28T10:22:47.619Z,85.73
2023-03-28T10:23:48.461Z,86.93
2023-03-28T10:24:49.184Z,88.26
2023-03-28T10:25:49.977Z,80.54
2023-03-28T10:25:58.617Z,81.97
2023-03-28T10:27:00.450Z,81.47
2023-03-28T10:28:00.235Z,81.21
2023-03-28T10:29:03.773Z,81.70
2023-03-28T10:30:01.543Z,80.58
2023-03-28T10:31:02.773Z,82.40
2023-03-28T10:32:02.788Z,84.46
2023-03-28T10:33:03.450Z,83.75
2023-03-28T10:34:03.732Z,85.71
2023-03-28T10:35:04.710Z,84.55
2023-03-28T10:36:05.733Z,85.24
2023-03-28T10:37:06.424Z,85.55
2023-03-28T10:38:06.846Z,79.61
2023-03-28T10:38:15.557Z,76.93
2023-03-28T10:39:15.911Z,76.91
2023-03-28T10:40:16.799Z,75.21
2023-03-28T10:41:16.851Z,74.48
2023-03-28T10:42:17.633Z,76.65
2023-03-28T10:43:18.450Z,76.68
2023-03-28T10:44:19.229Z,77.88
2023-03-28T10:45:20.125Z,80.10
2023-03-28T10:46:20.861Z,75.42
2023-03-28T10:47:21.094Z,76.59
2023-03-28T10:48:22.012Z,74.24
2023-03-28T10:49:22.764Z,76.68
2023-03-28T10:49:31.434Z,73.33
2023-03-28T10:50:32.022Z,73.13
2023-03-28T10:51:32.432Z,73.31
2023-03-28T10:52:32.611Z,76.76
2023-03-28T10:53:33.204Z,80.55
2023-03-28T10:54:33.907Z,83.20
2023-03-28T10:55:34.114Z,81.52
2023-03-28T10:56:34.344Z,80.53
2023-03-28T10:57:34.375Z,81.30
2023-03-28T10:58:35.024Z,80.79
2023-03-28T10:59:35.342Z,75.02
2023-03-28T11:00:36.087Z,73.60
2023-03-28T11:01:37.332Z,74.60
2023-03-28T11:02:38.049Z,75.25
2023-03-28T11:02:46.613Z,74.18
2023-03-28T11:03:47.571Z,74.15
2023-03-28T11:04:47.567Z,74.73
2023-03-28T11:05:54.981Z,74.68
2023-03-28T11:06:48.460Z,73.94
2023-03-28T11:07:48.651Z,72.36
2023-03-28T11:08:49.515Z,72.73
2023-03-28T11:09:49.679Z,76.13
2023-03-28T11:10:49.689Z,70.35
2023-03-28T11:11:50.660Z,72.48
2023-03-28T11:12:55.495Z,73.43
2023-03-28T11:13:52.308Z,72.87
2023-03-28T11:14:01.148Z,68.89
2023-03-28T11:15:01.829Z,68.86
2023-03-28T11:16:02.712Z,68.72
2023-03-28T11:17:03.477Z,71.43
2023-03-28T11:18:03.666Z,76.05
2023-03-28T11:19:04.500Z,77.09
2023-03-28T11:20:05.425Z,75.02
2023-03-28T11:21:06.244Z,76.18
2023-03-28T11:22:07.061Z,78.34
2023-03-28T11:23:07.126Z,78.04
2023-03-28T11:24:07.456Z,77.18
2023-03-28T11:25:07.653Z,80.40
2023-03-28T11:25:16.378Z,81.13
2023-03-28T11:26:17.120Z,81.73
2023-03-28T11:27:17.856Z,80.37
2023-03-28T11:28:18.710Z,78.19
2023-03-28T11:29:19.551Z,74.31
2023-03-28T11:30:20.484Z,73.18
2023-03-28T11:31:21.475Z,77.84
2023-03-28T11:32:22.230Z,75.69
2023-03-28T11:33:22.932Z,74.34
2023-03-28T11:34:23.708Z,76.28
2023-03-28T11:35:24.574Z,71.47
2023-03-28T11:36:25.369Z,72.69
2023-03-28T11:36:36.016Z,69.66
2023-03-28T11:37:36.785Z,69.55
2023-03-28T11:38:37.544Z,72.44
2023-03-28T11:39:37.687Z,70.54
2023-03-28T11:40:38.432Z,72.55
2023-03-28T11:41:39.391Z,73.06
2023-03-28T11:42:40.195Z,73.41
2023-03-28T11:43:40.907Z,73.40
2023-03-28T11:44:41.001Z,74.05
2023-03-28T11:45:50.148Z,72.45
2023-03-28T11:46:42.845Z,71.79
2023-03-28T11:47:43.524Z,69.54
2023-03-28T11:48:18.510Z,68.95
2023-03-28T11:49:19.368Z,69.38
2023-03-28T11:50:19.532Z,67.84
2023-03-28T11:51:19.656Z,68.35
2023-03-28T11:52:20.011Z,65.66
2023-03-28T11:53:20.841Z,63.61
2023-03-28T11:54:21.723Z,64.89
2023-03-28T11:55:21.859Z,64.16
2023-03-28T11:56:22.781Z,67.79
2023-03-28T11:57:23.732Z,65.99